Time;durP1;ratioP1;P1;durP2;ratioP2;P2;SDS_P1;SDS_P2;PMS_P1;PMS_P2;Temp;Humidity;BMP_temperature;BMP_pressure;BME280_temperature;BME280_humidity;BME280_pressure;Samples;Min_cycle;Max_cycle;Signal;HPM_P1;HPM_P2
2022/10/08 00:00:48;;;;;;;11.32;4.00;;;;;;;;;;5046358;28;20041;-69
2022/10/08 00:03:32;;;;;;;15.18;4.80;;;;;;;;;;5046861;28;20061;-68
2022/10/08 00:06:20;;;;;;;12.98;5.10;;;;;;;;;;5047887;28;20464;-69
2022/10/08 00:09:01;;;;;;;12.50;4.32;;;;;;;;;;5048231;28;20449;-69
2022/10/08 00:11:30;;;;;;;11.77;4.20;;;;;;;;;;5047253;28;20442;-68
2022/10/08 00:13:56;;;;;;;12.98;4.45;;;;;;;;;;5051209;28;20041;-68
2022/10/08 00:16:25;;;;;;;13.00;4.93;;;;;;;;;;5046091;28;20041;-66
2022/10/08 00:18:54;;;;;;;10.23;4.55;;;;;;;;;;5049814;28;20045;-69
2022/10/08 00:21:28;;;;;;;12.68;4.38;;;;;;;;;;5048847;28;20128;-68
2022/10/08 00:23:55;;;;;;;17.48;4.63;;;;;;;;;;5051518;28;20057;-68
2022/10/08 00:26:24;;;;;;;17.70;5.13;;;;;;;;;;5042214;28;20138;-67
2022/10/08 00:28:52;;;;;;;19.15;5.13;;;;;;;;;;5044099;28;20052;-68
2022/10/08 00:31:31;;;;;;;15.45;5.05;;;;;;;;;;5049733;28;20498;-68
2022/10/08 00:33:59;;;;;;;22.08;6.65;;;;;;;;;;5050307;28;20080;-69
2022/10/08 00:36:29;;;;;;;18.40;5.50;;;;;;;;;;5051797;28;20045;-69
2022/10/08 00:38:56;;;;;;;14.65;5.25;;;;;;;;;;5046585;28;20041;-69
2022/10/08 00:41:25;;;;;;;17.20;5.60;;;;;;;;;;5046970;28;20095;-68
2022/10/08 00:43:53;;;;;;;21.50;5.38;;;;;;;;;;5047407;28;20682;-69
2022/10/08 00:46:34;;;;;;;14.13;5.63;;;;;;;;;;5046045;28;20069;-69
2022/10/08 00:49:12;;;;;;;14.40;5.13;;;;;;;;;;5048248;28;20049;-68
2022/10/08 00:51:43;;;;;;;12.52;4.90;;;;;;;;;;5045996;28;20132;-68
2022/10/08 00:54:09;;;;;;;17.17;5.30;;;;;;;;;;5050073;28;20545;-71
2022/10/08 00:56:38;;;;;;;13.93;4.93;;;;;;;;;;5048788;28;20049;-69
2022/10/08 00:59:06;;;;;;;20.08;6.30;;;;;;;;;;5045288;28;20131;-68
2022/10/08 01:01:32;;;;;;;17.52;5.60;;;;;;;;;;5044910;28;20049;-66
2022/10/08 01:04:03;;;;;;;18.75;5.32;;;;;;;;;;5041329;28;20053;-69
2022/10/08 01:06:47;;;;;;;24.73;5.45;;;;;;;;;;5045978;28;20045;-69
2022/10/08 01:09:44;;;;;;;23.75;6.45;;;;;;;;;;5043142;28;20108;-67
2022/10/08 01:12:13;;;;;;;14.95;4.40;;;;;;;;;;5045051;28;20538;-68
2022/10/08 01:14:54;;;;;;;11.23;4.43;;;;;;;;;;5046150;28;20056;-69
2022/10/08 01:17:37;;;;;;;13.43;4.70;;;;;;;;;;5046666;28;20044;-70
2022/10/08 01:20:09;;;;;;;15.32;5.82;;;;;;;;;;5043631;28;20041;-68
2022/10/08 01:23:02;;;;;;;15.25;4.70;;;;;;;;;;5044414;28;20179;-72
2022/10/08 01:25:39;;;;;;;16.52;4.78;;;;;;;;;;5046840;28;20474;-69
2022/10/08 01:28:19;;;;;;;15.68;4.40;;;;;;;;;;5036369;28;20128;-67
2022/10/08 01:30:57;;;;;;;13.82;4.80;;;;;;;;;;5042193;28;20151;-68
2022/10/08 01:33:31;;;;;;;15.07;4.82;;;;;;;;;;5042984;28;20061;-70
2022/10/08 01:35:58;;;;;;;;;;;;;;;;;;5044018;28;20051;-68
2022/10/08 01:38:29;;;;;;;13.88;5.10;;;;;;;;;;5044110;28;19920;-71
2022/10/08 01:40:59;;;;;;;13.82;4.72;;;;;;;;;;5046122;28;20118;-68
2022/10/08 01:43:30;;;;;;;13.85;4.57;;;;;;;;;;5046371;28;20048;-71
2022/10/08 01:46:04;;;;;;;13.88;5.00;;;;;;;;;;5047978;28;20068;-67
2022/10/08 01:48:34;;;;;;;9.82;4.60;;;;;;;;;;5043503;28;20060;-68
2022/10/08 01:51:07;;;;;;;17.73;5.00;;;;;;;;;;5043336;28;20395;-68
2022/10/08 01:53:38;;;;;;;12.53;4.67;;;;;;;;;;5044931;28;20053;-68
2022/10/08 01:56:08;;;;;;;12.80;4.80;;;;;;;;;;5045965;28;20297;-67
2022/10/08 01:59:06;;;;;;;12.48;4.32;;;;;;;;;;5048125;28;20067;-66
2022/10/08 02:01:57;;;;;;;21.13;5.13;;;;;;;;;;5045973;28;20040;-67
2022/10/08 02:04:34;;;;;;;14.38;4.40;;;;;;;;;;5040814;28;20514;-68
2022/10/08 02:07:07;;;;;;;16.45;5.00;;;;;;;;;;5046778;28;20110;-68
2022/10/08 02:09:42;;;;;;;10.57;4.15;;;;;;;;;;5032467;28;20041;-68
2022/10/08 02:12:08;;;;;;;;;;;;;;;;;;5042925;28;20446;-68
2022/10/08 02:14:37;;;;;;;17.33;4.43;;;;;;;;;;5047398;28;20027;-69
2022/10/08 02:17:22;;;;;;;12.95;4.10;;;;;;;;;;5047207;28;20041;-67
2022/10/08 02:20:10;;;;;;;12.18;4.57;;;;;;;;;;5043974;28;20053;-68
2022/10/08 02:22:42;;;;;;;12.43;4.25;;;;;;;;;;5043897;28;20045;-69
2022/10/08 02:25:12;;;;;;;16.63;4.13;;;;;;;;;;5047617;28;20037;-68
2022/10/08 02:28:07;;;;;;;13.32;4.22;;;;;;;;;;5049173;28;20045;-68
2022/10/08 02:30:46;;;;;;;8.55;4.50;;;;;;;;;;5048267;28;20051;-67
2022/10/08 02:33:20;;;;;;;16.25;4.57;;;;;;;;;;5036587;28;20096;-67
2022/10/08 02:35:49;;;;;;;;;;;;;;;;;;5041196;28;20083;-67
2022/10/08 02:38:28;;;;;;;8.18;3.65;;;;;;;;;;5047408;28;19920;-66
2022/10/08 02:40:57;;;;;;;13.55;4.05;;;;;;;;;;5043326;28;20445;-67
2022/10/08 02:43:28;;;;;;;16.38;4.53;;;;;;;;;;5043071;28;20109;-67
2022/10/08 02:46:15;;;;;;;9.80;4.10;;;;;;;;;;5048862;28;20056;-67
2022/10/08 02:48:56;;;;;;;14.77;4.07;;;;;;;;;;5049510;28;20120;-68
2022/10/08 02:51:23;;;;;;;11.02;4.22;;;;;;;;;;5047431;28;20086;-67
2022/10/08 02:53:50;;;;;;;12.68;4.20;;;;;;;;;;5047543;28;20453;-67
2022/10/08 02:56:26;;;;;;;11.13;4.20;;;;;;;;;;5035242;28;20060;-66
2022/10/08 02:58:53;;;;;;;14.68;4.50;;;;;;;;;;5047876;28;20049;-66
2022/10/08 03:02:02;;;;;;;16.23;5.18;;;;;;;;;;5048758;28;20069;-66
2022/10/08 03:04:35;;;;;;;15.20;4.80;;;;;;;;;;5040355;28;20403;-66
2022/10/08 03:07:02;;;;;;;16.57;5.13;;;;;;;;;;5051567;28;20045;-68
2022/10/08 03:09:36;;;;;;;13.82;5.03;;;;;;;;;;5046331;28;20045;-67
2022/10/08 03:12:04;;;;;;;14.55;4.75;;;;;;;;;;5037234;28;20599;-67
2022/10/08 03:14:36;;;;;;;12.40;4.70;;;;;;;;;;5043044;28;20464;-68
2022/10/08 03:17:02;;;;;;;17.40;4.85;;;;;;;;;;5043038;28;20045;-67
2022/10/08 03:19:28;;;;;;;14.23;5.05;;;;;;;;;;5040024;28;20052;-67
2022/10/08 03:21:55;;;;;;;15.40;5.40;;;;;;;;;;5047621;28;20041;-67
2022/10/08 03:24:21;;;;;;;14.90;4.95;;;;;;;;;;5035356;28;20086;-67
2022/10/08 03:26:47;;;;;;;14.10;5.20;;;;;;;;;;5043559;28;20069;-67
2022/10/08 03:29:13;;;;;;;16.33;4.53;;;;;;;;;;5040756;28;20061;-67
2022/10/08 03:31:39;;;;;;;14.45;5.18;;;;;;;;;;5042089;28;20045;-66
2022/10/08 03:34:05;;;;;;;12.18;4.35;;;;;;;;;;5046326;28;20048;-67
2022/10/08 03:36:30;;;;;;;14.50;4.60;;;;;;;;;;5047178;28;20045;-66
2022/10/08 03:38:56;;;;;;;10.95;4.50;;;;;;;;;;5046498;28;20099;-67
2022/10/08 03:41:22;;;;;;;10.15;4.20;;;;;;;;;;5047745;28;20037;-69
2022/10/08 03:43:48;;;;;;;11.70;4.43;;;;;;;;;;5041174;28;20071;-68
2022/10/08 03:46:14;;;;;;;17.08;4.32;;;;;;;;;;5045066;28;20115;-67
2022/10/08 03:48:41;;;;;;;12.70;4.55;;;;;;;;;;5051182;28;20047;-66
2022/10/08 03:51:10;;;;;;;15.90;4.35;;;;;;;;;;5050629;28;20072;-68
2022/10/08 03:53:38;;;;;;;15.10;4.50;;;;;;;;;;5051729;28;20083;-66
2022/10/08 03:56:06;;;;;;;14.70;4.07;;;;;;;;;;5050860;28;20379;-66
2022/10/08 03:58:32;;;;;;;12.65;4.45;;;;;;;;;;5044244;28;20049;-67
2022/10/08 04:01:00;;;;;;;17.75;4.50;;;;;;;;;;5046660;28;20098;-68
2022/10/08 04:03:27;;;;;;;13.55;5.00;;;;;;;;;;5049777;28;20320;-67
2022/10/08 04:05:53;;;;;;;11.32;4.25;;;;;;;;;;5051713;28;20131;-67
2022/10/08 04:08:19;;;;;;;12.38;4.72;;;;;;;;;;5048808;28;20136;-67
2022/10/08 04:10:45;;;;;;;16.58;4.60;;;;;;;;;;5041438;28;20041;-66
2022/10/08 04:13:11;;;;;;;17.13;4.75;;;;;;;;;;5051082;28;20044;-67
2022/10/08 04:15:37;;;;;;;12.57;4.90;;;;;;;;;;5051997;28;20126;-66
2022/10/08 04:18:03;;;;;;;15.85;4.53;;;;;;;;;;5052418;28;20116;-67
2022/10/08 04:20:28;;;;;;;13.43;4.63;;;;;;;;;;5049941;28;20132;-69
2022/10/08 04:22:54;;;;;;;15.93;5.18;;;;;;;;;;5047134;28;20472;-68
2022/10/08 04:25:20;;;;;;;14.48;4.10;;;;;;;;;;5051275;28;20049;-67
2022/10/08 04:27:48;;;;;;;13.73;4.05;;;;;;;;;;5054360;28;20135;-67
2022/10/08 04:30:14;;;;;;;11.82;3.95;;;;;;;;;;5043012;28;20055;-72
2022/10/08 04:32:40;;;;;;;14.27;4.45;;;;;;;;;;5044025;28;20230;-68
2022/10/08 04:35:07;;;;;;;15.23;5.28;;;;;;;;;;5048131;28;21691;-67
2022/10/08 04:37:33;;;;;;;17.75;4.40;;;;;;;;;;5051887;28;20048;-67
2022/10/08 04:39:59;;;;;;;16.88;4.22;;;;;;;;;;5051892;28;20044;-68
2022/10/08 04:42:25;;;;;;;22.20;5.53;;;;;;;;;;5049110;28;20135;-68
2022/10/08 04:44:51;;;;;;;14.65;4.50;;;;;;;;;;5047772;28;20071;-66
2022/10/08 04:47:17;;;;;;;14.18;4.60;;;;;;;;;;5045220;28;20041;-67
2022/10/08 04:49:42;;;;;;;14.93;4.75;;;;;;;;;;5042084;28;20049;-66
2022/10/08 04:52:09;;;;;;;17.25;4.53;;;;;;;;;;5045903;28;20049;-66
2022/10/08 04:54:35;;;;;;;17.58;4.65;;;;;;;;;;5047496;28;20049;-67
2022/10/08 04:57:00;;;;;;;12.07;4.65;;;;;;;;;;5039346;28;20052;-66
2022/10/08 04:59:26;;;;;;;22.98;4.32;;;;;;;;;;5043130;28;20098;-67
2022/10/08 05:01:55;;;;;;;11.48;4.22;;;;;;;;;;5044805;28;20075;-68
2022/10/08 05:04:22;;;;;;;13.38;4.18;;;;;;;;;;5046496;28;20052;-69
2022/10/08 05:06:48;;;;;;;15.68;4.18;;;;;;;;;;5046171;28;20497;-66
2022/10/08 05:09:14;;;;;;;14.00;4.50;;;;;;;;;;5047158;28;20049;-70
2022/10/08 05:11:41;;;;;;;16.27;4.38;;;;;;;;;;5044157;28;20292;-67
2022/10/08 05:14:08;;;;;;;17.88;4.15;;;;;;;;;;5049196;28;20075;-67
2022/10/08 05:16:35;;;;;;;17.48;4.32;;;;;;;;;;5041377;28;20045;-68
2022/10/08 05:19:03;;;;;;;17.80;4.43;;;;;;;;;;5047860;28;20084;-68
2022/10/08 05:21:31;;;;;;;20.10;4.53;;;;;;;;;;5049632;28;20052;-68
2022/10/08 05:24:00;;;;;;;15.65;4.10;;;;;;;;;;5047655;28;20052;-68
2022/10/08 05:26:29;;;;;;;16.23;4.38;;;;;;;;;;5049664;28;20053;-67
2022/10/08 05:28:56;;;;;;;14.48;4.22;;;;;;;;;;5043190;28;20049;-69
2022/10/08 05:31:24;;;;;;;12.50;3.95;;;;;;;;;;5050225;28;20053;-67
2022/10/08 05:33:50;;;;;;;15.25;3.88;;;;;;;;;;5050822;28;20098;-67
2022/10/08 05:36:21;;;;;;;15.55;3.80;;;;;;;;;;5049889;28;20042;-67
2022/10/08 05:38:47;;;;;;;15.68;3.90;;;;;;;;;;5047568;28;20049;-67
2022/10/08 05:41:19;;;;;;;11.45;3.75;;;;;;;;;;5046683;28;20048;-66
2022/10/08 05:43:46;;;;;;;10.20;4.13;;;;;;;;;;5045401;28;20052;-67
2022/10/08 05:46:12;;;;;;;10.95;3.75;;;;;;;;;;5043209;28;20765;-68
2022/10/08 05:48:39;;;;;;;9.23;3.20;;;;;;;;;;5047953;28;20045;-68
2022/10/08 05:51:06;;;;;;;13.18;3.42;;;;;;;;;;5045783;28;20205;-68
2022/10/08 05:53:36;;;;;;;18.85;3.95;;;;;;;;;;5047938;28;20566;-68
2022/10/08 05:56:05;;;;;;;10.45;3.50;;;;;;;;;;5049693;28;20049;-67
2022/10/08 05:58:33;;;;;;;15.52;3.90;;;;;;;;;;5052115;28;20221;-71
2022/10/08 06:01:02;;;;;;;12.82;3.70;;;;;;;;;;5044097;28;20175;-66
2022/10/08 06:03:28;;;;;;;11.52;3.65;;;;;;;;;;5046023;28;20574;-69
2022/10/08 06:05:59;;;;;;;15.13;3.50;;;;;;;;;;5045483;28;20092;-65
2022/10/08 06:08:25;;;;;;;12.75;3.22;;;;;;;;;;5039897;28;20049;-67
2022/10/08 06:10:53;;;;;;;15.18;3.65;;;;;;;;;;5044186;28;20560;-67
2022/10/08 06:13:20;;;;;;;17.63;4.25;;;;;;;;;;5042889;28;20049;-65
2022/10/08 06:16:05;;;;;;;7.68;3.28;;;;;;;;;;5038525;28;20067;-68
2022/10/08 06:18:33;;;;;;;11.05;3.28;;;;;;;;;;5044061;28;20131;-68
2022/10/08 06:21:11;;;;;;;14.27;3.40;;;;;;;;;;5042633;28;20048;-67
2022/10/08 06:23:39;;;;;;;12.18;3.50;;;;;;;;;;5042503;28;20499;-68
2022/10/08 06:26:08;;;;;;;9.85;3.53;;;;;;;;;;5041343;28;20477;-68
2022/10/08 06:28:35;;;;;;;18.52;4.28;;;;;;;;;;5030060;28;20214;-67
2022/10/08 06:31:02;;;;;;;14.18;5.03;;;;;;;;;;5024739;28;20049;-71
2022/10/08 06:33:29;;;;;;;13.52;3.45;;;;;;;;;;5036266;28;20092;-67
2022/10/08 06:35:55;;;;;;;10.15;3.38;;;;;;;;;;5035837;28;20370;-70
2022/10/08 06:38:21;;;;;;;11.52;3.15;;;;;;;;;;5034507;28;20049;-66
2022/10/08 06:40:47;;;;;;;14.40;3.70;;;;;;;;;;5036545;28;20044;-68
2022/10/08 06:43:15;;;;;;;11.07;3.42;;;;;;;;;;5038782;28;20048;-67
2022/10/08 06:45:43;;;;;;;14.68;3.83;;;;;;;;;;5036321;28;20044;-66
2022/10/08 06:48:10;;;;;;;11.05;3.38;;;;;;;;;;5031751;28;20055;-66
2022/10/08 06:50:36;;;;;;;13.68;3.63;;;;;;;;;;5040372;28;20049;-70
2022/10/08 06:53:04;;;;;;;16.67;3.42;;;;;;;;;;5036851;28;20114;-69
2022/10/08 06:55:34;;;;;;;13.20;3.90;;;;;;;;;;5037031;28;20289;-69
2022/10/08 06:58:01;;;;;;;12.88;3.60;;;;;;;;;;5031923;28;20507;-73
2022/10/08 07:00:27;;;;;;;15.20;4.38;;;;;;;;;;5036491;28;20045;-68
2022/10/08 07:02:54;;;;;;;17.23;4.05;;;;;;;;;;5039998;28;20482;-69
2022/10/08 07:05:20;;;;;;;14.82;3.47;;;;;;;;;;5037903;28;20045;-69
2022/10/08 07:07:46;;;;;;;11.50;4.57;;;;;;;;;;5038099;28;20041;-69
2022/10/08 07:10:12;;;;;;;14.07;4.43;;;;;;;;;;5038782;28;20150;-68
2022/10/08 07:12:38;;;;;;;11.65;3.50;;;;;;;;;;5044568;28;20386;-71
2022/10/08 07:15:04;;;;;;;13.32;3.88;;;;;;;;;;5025339;28;20554;-67
2022/10/08 07:17:30;;;;;;;11.15;3.83;;;;;;;;;;5023775;28;20073;-70
2022/10/08 07:19:56;;;;;;;16.27;4.68;;;;;;;;;;5023728;28;20140;-68
2022/10/08 07:22:23;;;;;;;13.90;4.38;;;;;;;;;;5042014;28;20049;-70
2022/10/08 07:24:51;;;;;;;15.93;4.43;;;;;;;;;;5034443;28;20076;-68
2022/10/08 07:27:18;;;;;;;11.02;3.85;;;;;;;;;;5037871;28;20128;-67
2022/10/08 07:29:44;;;;;;;13.32;4.43;;;;;;;;;;5032154;28;20456;-70
2022/10/08 07:32:10;;;;;;;17.42;4.97;;;;;;;;;;5034907;28;20056;-69
2022/10/08 07:34:36;;;;;;;15.13;4.40;;;;;;;;;;5026838;28;20049;-69
2022/10/08 07:37:02;;;;;;;11.93;4.90;;;;;;;;;;5036319;28;20055;-76
2022/10/08 07:39:28;;;;;;;11.63;4.22;;;;;;;;;;5037245;28;20045;-76
2022/10/08 07:41:53;;;;;;;18.85;5.30;;;;;;;;;;5038819;28;20107;-71
2022/10/08 07:44:20;;;;;;;14.32;4.90;;;;;;;;;;5032451;28;20060;-72
2022/10/08 07:46:49;;;;;;;11.95;4.35;;;;;;;;;;5036526;28;20503;-71
2022/10/08 07:49:18;;;;;;;13.55;4.15;;;;;;;;;;5036793;28;20068;-70
2022/10/08 07:51:44;;;;;;;19.95;4.93;;;;;;;;;;5034442;28;20731;-68
2022/10/08 07:54:16;;;;;;;13.50;3.97;;;;;;;;;;5034316;28;20045;-71
2022/10/08 07:56:41;;;;;;;8.02;3.70;;;;;;;;;;5037533;28;20095;-72
2022/10/08 07:59:08;;;;;;;12.63;3.97;;;;;;;;;;5040743;28;20570;-71
2022/10/08 08:01:34;;;;;;;13.23;3.85;;;;;;;;;;5038790;28;20057;-71
2022/10/08 08:04:03;;;;;;;9.15;3.65;;;;;;;;;;5035362;28;20045;-67
2022/10/08 08:06:30;;;;;;;14.65;3.60;;;;;;;;;;5038439;28;20075;-64
2022/10/08 08:08:58;;;;;;;10.93;3.58;;;;;;;;;;5036516;28;20047;-67
2022/10/08 08:11:24;;;;;;;14.52;3.83;;;;;;;;;;5037840;28;20458;-68
2022/10/08 08:13:51;;;;;;;12.00;4.53;;;;;;;;;;5034751;28;20045;-67
2022/10/08 08:16:24;;;;;;;11.23;3.90;;;;;;;;;;5039343;28;20045;-68
2022/10/08 08:18:52;;;;;;;11.48;3.88;;;;;;;;;;5031023;28;20087;-66
2022/10/08 08:21:21;;;;;;;12.10;4.05;;;;;;;;;;5025872;28;20473;-65
2022/10/08 08:23:49;;;;;;;16.48;3.85;;;;;;;;;;5037561;28;20455;-66
2022/10/08 08:26:23;;;;;;;11.18;3.78;;;;;;;;;;5042027;28;20525;-64
2022/10/08 08:28:54;;;;;;;11.70;4.15;;;;;;;;;;5045889;28;20045;-65
2022/10/08 08:31:24;;;;;;;10.55;3.92;;;;;;;;;;5040678;28;21023;-72
2022/10/08 08:33:56;;;;;;;11.48;4.15;;;;;;;;;;5040306;28;20197;-64
2022/10/08 08:36:27;;;;;;;10.90;4.18;;;;;;;;;;5042423;28;20036;-65
2022/10/08 08:38:54;;;;;;;8.60;3.95;;;;;;;;;;5038614;28;20048;-66
2022/10/08 08:41:59;;;;;;;11.50;3.58;;;;;;;;;;5042907;28;20654;-67
2022/10/08 08:44:47;;;;;;;10.38;3.35;;;;;;;;;;5045474;28;20057;-66
2022/10/08 08:47:26;;;;;;;15.48;4.25;;;;;;;;;;5043218;28;20045;-67
2022/10/08 08:50:35;;;;;;;14.40;3.80;;;;;;;;;;5040601;28;20053;-69
2022/10/08 08:53:02;;;;;;;15.40;4.32;;;;;;;;;;5038307;28;20055;-62
2022/10/08 08:55:39;;;;;;;13.18;3.35;;;;;;;;;;5041416;28;20428;-64
2022/10/08 08:58:25;;;;;;;10.90;3.60;;;;;;;;;;5040919;28;20056;-64
2022/10/08 09:00:57;;;;;;;15.02;4.13;;;;;;;;;;5027535;28;20057;-70
2022/10/08 09:03:32;;;;;;;13.10;3.70;;;;;;;;;;5038599;28;20080;-65
2022/10/08 09:06:01;;;;;;;16.30;3.78;;;;;;;;;;5044367;28;20058;-65
2022/10/08 09:08:34;;;;;;;11.63;3.60;;;;;;;;;;5044464;28;20040;-69
2022/10/08 09:11:03;;;;;;;12.95;4.40;;;;;;;;;;5039802;28;20514;-69
2022/10/08 09:13:39;;;;;;;14.60;4.55;;;;;;;;;;5038827;28;20053;-70
2022/10/08 09:16:05;;;;;;;15.48;4.25;;;;;;;;;;5036536;28;20056;-69
2022/10/08 09:18:31;;;;;;;14.68;3.67;;;;;;;;;;5040341;28;20152;-64
2022/10/08 09:20:57;;;;;;;18.17;3.88;;;;;;;;;;5039731;28;20660;-69
2022/10/08 09:23:25;;;;;;;21.92;5.53;;;;;;;;;;5039868;28;20060;-70
2022/10/08 09:26:14;;;;;;;25.13;7.05;;;;;;;;;;5041081;28;20052;-72
2022/10/08 09:28:45;;;;;;;15.88;5.70;;;;;;;;;;5033447;28;20065;-63
2022/10/08 09:31:26;;;;;;;18.05;5.03;;;;;;;;;;5039087;28;20110;-69
2022/10/08 09:34:14;;;;;;;13.95;4.20;;;;;;;;;;5040276;28;20491;-67
2022/10/08 09:36:51;;;;;;;14.55;4.40;;;;;;;;;;5035051;28;20529;-64
2022/10/08 09:39:29;;;;;;;15.32;4.13;;;;;;;;;;5043221;28;20053;-65
2022/10/08 09:42:13;;;;;;;14.77;4.28;;;;;;;;;;5036921;28;20040;-66
2022/10/08 09:44:41;;;;;;;9.87;3.70;;;;;;;;;;5039877;28;20057;-71
2022/10/08 09:47:22;;;;;;;12.38;3.80;;;;;;;;;;5039062;28;20045;-66
2022/10/08 09:50:24;;;;;;;14.23;3.60;;;;;;;;;;5040560;28;20205;-66
2022/10/08 09:52:53;;;;;;;16.33;3.70;;;;;;;;;;4995401;28;20411;-67
2022/10/08 09:55:23;;;;;;;18.70;4.05;;;;;;;;;;4974815;28;20057;-67
2022/10/08 09:57:52;;;;;;;16.05;4.03;;;;;;;;;;4990855;28;20045;-68
2022/10/08 10:00:36;;;;;;;13.20;3.58;;;;;;;;;;4985735;28;20046;-67
2022/10/08 10:03:14;;;;;;;14.43;3.65;;;;;;;;;;4993371;28;20047;-65
2022/10/08 10:05:40;;;;;;;18.23;3.10;;;;;;;;;;4998629;28;20346;-65
2022/10/08 10:08:45;;;;;;;13.20;3.05;;;;;;;;;;4986713;28;20051;-68
2022/10/08 10:11:18;;;;;;;14.98;2.92;;;;;;;;;;4994046;28;20043;-67
2022/10/08 10:13:46;;;;;;;14.35;3.45;;;;;;;;;;4998254;28;20058;-66
2022/10/08 10:16:19;;;;;;;16.73;3.17;;;;;;;;;;4996917;28;20088;-67
2022/10/08 10:19:07;;;;;;;10.97;2.80;;;;;;;;;;5000904;28;20046;-67
2022/10/08 10:21:58;;;;;;;12.27;2.90;;;;;;;;;;4990879;28;20335;-66
2022/10/08 10:25:09;;;;;;;15.25;3.17;;;;;;;;;;4990426;28;20064;-69
2022/10/08 10:27:44;;;;;;;10.60;2.42;;;;;;;;;;5020228;28;20104;-67
2022/10/08 10:30:20;;;;;;;15.15;2.75;;;;;;;;;;5045480;28;20056;-69
2022/10/08 10:33:03;;;;;;;15.98;3.42;;;;;;;;;;5038038;28;20084;-64
2022/10/08 10:35:31;;;;;;;6.95;2.55;;;;;;;;;;5046895;28;20077;-68
2022/10/08 10:38:00;;;;;;;16.38;3.42;;;;;;;;;;5050052;28;20487;-69
2022/10/08 10:40:46;;;;;;;14.18;2.72;;;;;;;;;;5046486;28;20063;-65
2022/10/08 10:43:33;;;;;;;13.18;3.20;;;;;;;;;;5043281;28;20076;-70
2022/10/08 10:46:25;;;;;;;7.38;2.88;;;;;;;;;;5045235;28;20417;-70
2022/10/08 10:48:54;;;;;;;14.27;3.33;;;;;;;;;;5035791;28;20098;-66
2022/10/08 10:51:44;;;;;;;16.98;3.30;;;;;;;;;;5039946;28;20691;-66
2022/10/08 10:54:33;;;;;;;15.45;4.53;;;;;;;;;;5045807;28;20554;-65
2022/10/08 10:57:04;;;;;;;17.35;4.18;;;;;;;;;;5044111;28;20041;-65
2022/10/08 10:59:45;;;;;;;13.50;3.90;;;;;;;;;;5041346;28;20046;-66
2022/10/08 11:02:17;;;;;;;11.90;3.40;;;;;;;;;;5041480;28;20055;-70
2022/10/08 11:04:54;;;;;;;10.43;3.67;;;;;;;;;;5039559;28;20406;-66
2022/10/08 11:07:42;;;;;;;12.15;3.90;;;;;;;;;;5040768;28;20041;-72
2022/10/08 11:10:19;;;;;;;12.88;3.13;;;;;;;;;;5044030;28;20268;-68
2022/10/08 11:12:51;;;;;;;12.82;3.35;;;;;;;;;;5041629;28;20682;-72
2022/10/08 11:15:21;;;;;;;12.32;3.65;;;;;;;;;;5044091;28;20048;-69
2022/10/08 11:18:14;;;;;;;11.88;3.45;;;;;;;;;;5040681;28;20091;-70
2022/10/08 11:21:12;;;;;;;10.65;3.20;;;;;;;;;;5035668;28;20045;-68
2022/10/08 11:24:05;;;;;;;9.30;3.20;;;;;;;;;;5021264;28;20464;-66
2022/10/08 11:26:43;;;;;;;10.02;3.08;;;;;;;;;;5021869;28;20118;-66
2022/10/08 11:29:27;;;;;;;10.40;3.28;;;;;;;;;;5018225;28;20089;-66
2022/10/08 11:31:53;;;;;;;;;;;;;;;;;;5022151;28;20057;-69
2022/10/08 11:34:24;;;;;;;12.32;3.47;;;;;;;;;;5022350;28;19925;-66
2022/10/08 11:37:18;;;;;;;15.52;3.63;;;;;;;;;;5018719;28;20045;-66
2022/10/08 11:40:21;;;;;;;12.82;3.40;;;;;;;;;;5016378;28;20049;-66
2022/10/08 11:43:11;;;;;;;30.38;6.97;;;;;;;;;;5025018;28;20053;-66
2022/10/08 11:45:44;;;;;;;8.93;2.83;;;;;;;;;;5013663;28;20203;-65
2022/10/08 11:48:32;;;;;;;10.73;3.17;;;;;;;;;;5025255;28;20466;-66
2022/10/08 11:51:20;;;;;;;9.50;2.83;;;;;;;;;;5025519;28;20302;-67
2022/10/08 11:54:13;;;;;;;8.80;2.85;;;;;;;;;;5022078;28;20041;-71
2022/10/08 11:56:48;;;;;;;10.35;3.20;;;;;;;;;;5022852;28;20614;-67
2022/10/08 11:59:35;;;;;;;12.60;3.55;;;;;;;;;;5028313;28;20144;-69
2022/10/08 12:02:05;;;;;;;13.63;6.35;;;;;;;;;;5044405;28;20041;-69
2022/10/08 12:04:36;;;;;;;23.70;12.73;;;;;;;;;;5046221;28;20072;-68
2022/10/08 12:07:07;;;;;;;14.10;6.28;;;;;;;;;;5047929;28;20053;-65
2022/10/08 12:09:59;;;;;;;50.92;34.58;;;;;;;;;;5048543;28;20155;-67
2022/10/08 12:12:44;;;;;;;26.70;16.23;;;;;;;;;;5043615;28;20036;-64
2022/10/08 12:15:22;;;;;;;;;;;;;;;;;;5040046;28;20049;-62
2022/10/08 12:17:57;;;;;;;10.07;4.45;;;;;;;;;;5048556;28;19928;-64
2022/10/08 12:20:31;;;;;;;6.78;3.20;;;;;;;;;;5037162;28;20045;-66
2022/10/08 12:23:11;;;;;;;;;;;;;;;;;;5048225;28;20048;-66
2022/10/08 12:25:47;;;;;;;11.15;3.88;;;;;;;;;;5047182;28;19925;-66
2022/10/08 12:28:19;;;;;;;8.38;2.75;;;;;;;;;;5047609;28;20049;-66
2022/10/08 12:30:52;;;;;;;10.10;3.55;;;;;;;;;;5044896;28;20055;-69
2022/10/08 12:33:19;;;;;;;6.75;2.65;;;;;;;;;;5038846;28;20056;-67
2022/10/08 12:35:57;;;;;;;11.52;3.00;;;;;;;;;;5049557;28;20049;-66
2022/10/08 12:38:44;;;;;;;9.55;3.10;;;;;;;;;;5043956;28;20045;-68
2022/10/08 12:41:15;;;;;;;8.27;2.92;;;;;;;;;;5048885;28;20055;-71
2022/10/08 12:43:50;;;;;;;8.23;3.30;;;;;;;;;;5043574;28;20757;-67
2022/10/08 12:47:03;;;;;;;4.82;2.30;;;;;;;;;;5039238;28;20040;-68
2022/10/08 12:49:41;;;;;;;18.52;2.70;;;;;;;;;;5033466;28;20407;-69
2022/10/08 12:52:13;;;;;;;7.25;2.25;;;;;;;;;;5041237;28;20053;-68
2022/10/08 12:54:49;;;;;;;6.40;2.00;;;;;;;;;;5050118;28;20049;-69
2022/10/08 12:57:21;;;;;;;12.38;2.60;;;;;;;;;;5048909;28;20041;-71
2022/10/08 12:59:49;;;;;;;5.70;2.50;;;;;;;;;;5043843;28;20140;-70
2022/10/08 13:02:37;;;;;;;5.90;1.83;;;;;;;;;;5043479;28;20095;-69
2022/10/08 13:05:05;;;;;;;6.85;2.22;;;;;;;;;;5048679;28;20051;-70
2022/10/08 13:07:33;;;;;;;8.07;1.88;;;;;;;;;;5046996;28;20533;-70
2022/10/08 13:10:15;;;;;;;6.85;2.15;;;;;;;;;;5042592;28;20518;-67
2022/10/08 13:12:42;;;;;;;7.43;2.30;;;;;;;;;;5038072;28;20256;-71
2022/10/08 13:15:23;;;;;;;8.25;1.80;;;;;;;;;;5042294;28;20046;-69
2022/10/08 13:17:49;;;;;;;7.82;1.98;;;;;;;;;;5049012;28;20086;-68
2022/10/08 13:20:18;;;;;;;7.97;2.10;;;;;;;;;;5047476;28;20656;-69
2022/10/08 13:22:45;;;;;;;9.00;1.98;;;;;;;;;;5046855;28;20053;-72
2022/10/08 13:25:36;;;;;;;6.93;2.17;;;;;;;;;;5047021;28;20244;-71
2022/10/08 13:28:09;;;;;;;6.20;2.55;;;;;;;;;;5039009;28;20045;-69
2022/10/08 13:30:35;;;;;;;4.85;1.65;;;;;;;;;;5040684;28;20083;-70
2022/10/08 13:33:03;;;;;;;7.05;2.13;;;;;;;;;;5046441;28;20511;-71
2022/10/08 13:35:29;;;;;;;8.77;2.20;;;;;;;;;;5043000;28;20236;-71
2022/10/08 13:37:55;;;;;;;7.68;2.00;;;;;;;;;;5040488;28;20053;-77
2022/10/08 13:40:22;;;;;;;5.68;1.92;;;;;;;;;;5041337;28;20052;-70
2022/10/08 13:42:57;;;;;;;9.52;2.00;;;;;;;;;;5046108;28;20056;-68
2022/10/08 13:45:25;;;;;;;6.80;2.10;;;;;;;;;;5048802;28;20055;-71
2022/10/08 13:47:52;;;;;;;8.95;2.10;;;;;;;;;;5050302;28;20128;-71
2022/10/08 13:50:19;;;;;;;9.20;2.08;;;;;;;;;;5042960;28;20513;-67
2022/10/08 13:52:52;;;;;;;10.13;2.00;;;;;;;;;;5052003;28;20387;-73
2022/10/08 13:55:31;;;;;;;7.32;2.10;;;;;;;;;;5049179;28;20037;-71
2022/10/08 13:58:02;;;;;;;6.03;1.80;;;;;;;;;;5045415;28;20044;-70
2022/10/08 14:00:34;;;;;;;6.70;2.08;;;;;;;;;;5049639;28;20049;-67
2022/10/08 14:03:01;;;;;;;6.15;1.63;;;;;;;;;;5049424;28;20057;-73
2022/10/08 14:05:29;;;;;;;8.93;1.92;;;;;;;;;;5048426;28;20049;-71
2022/10/08 14:07:58;;;;;;;8.32;2.28;;;;;;;;;;5046614;28;20098;-72
2022/10/08 14:10:24;;;;;;;9.05;2.42;;;;;;;;;;5041347;28;20046;-69
2022/10/08 14:12:50;;;;;;;7.70;2.00;;;;;;;;;;5045647;28;20052;-69
2022/10/08 14:15:17;;;;;;;7.38;1.67;;;;;;;;;;5048152;28;20075;-71
2022/10/08 14:17:43;;;;;;;7.25;1.55;;;;;;;;;;5045215;28;20414;-71
2022/10/08 14:20:10;;;;;;;6.07;1.40;;;;;;;;;;5038994;28;20095;-71
2022/10/08 14:22:39;;;;;;;9.77;1.73;;;;;;;;;;5047600;28;20086;-70
2022/10/08 14:25:05;;;;;;;6.35;1.33;;;;;;;;;;5046504;28;20045;-69
2022/10/08 14:27:31;;;;;;;5.47;1.88;;;;;;;;;;5044571;28;20104;-72
2022/10/08 14:29:56;;;;;;;9.13;1.67;;;;;;;;;;5048326;28;20237;-72
2022/10/08 14:32:22;;;;;;;6.53;1.60;;;;;;;;;;5047507;28;20492;-68
2022/10/08 14:34:48;;;;;;;6.85;1.90;;;;;;;;;;5041477;28;20037;-69
2022/10/08 14:37:14;;;;;;;5.68;1.98;;;;;;;;;;5048047;28;20048;-71
2022/10/08 14:39:40;;;;;;;9.88;1.67;;;;;;;;;;5046016;28;20410;-72
2022/10/08 14:42:05;;;;;;;6.60;1.50;;;;;;;;;;5044743;28;20041;-70
2022/10/08 14:44:31;;;;;;;7.70;1.65;;;;;;;;;;5047941;28;20065;-72
2022/10/08 14:46:57;;;;;;;6.80;1.50;;;;;;;;;;5038331;28;20875;-75
2022/10/08 14:49:23;;;;;;;6.28;2.00;;;;;;;;;;5047358;28;20475;-71
2022/10/08 14:51:49;;;;;;;8.63;1.77;;;;;;;;;;5045457;28;20041;-71
2022/10/08 14:54:16;;;;;;;12.63;2.40;;;;;;;;;;5046642;28;20059;-71
2022/10/08 14:56:42;;;;;;;9.10;2.05;;;;;;;;;;5046266;28;20098;-72
2022/10/08 14:59:11;;;;;;;8.27;1.98;;;;;;;;;;5044032;28;20049;-72
2022/10/08 15:01:38;;;;;;;8.70;2.10;;;;;;;;;;5040933;28;20487;-71
2022/10/08 15:04:04;;;;;;;5.10;2.17;;;;;;;;;;5047544;28;20574;-71